Time;durP1;ratioP1;P1;durP2;ratioP2;P2;SDS_P1;SDS_P2;PMS_P1;PMS_P2;Temp;Humidity;BMP_temperature;BMP_pressure;BME280_temperature;BME280_humidity;BME280_pressure;Samples;Min_cycle;Max_cycle;Signal;HPM_P1;HPM_P2
2020/12/31 00:02:10;;;;;;;27.20;15.70;;;4.90;99.90;;;;;;6966315;28;20410;-70
2020/12/31 00:05:31;;;;;;;25.90;16.50;;;4.80;99.90;;;;;;6936194;28;20412;-70
2020/12/31 00:08:52;;;;;;;26.73;15.87;;;4.90;99.90;;;;;;6978697;28;20415;-70
2020/12/31 00:12:13;;;;;;;25.93;15.33;;;4.80;99.90;;;;;;6944035;28;20429;-69
2020/12/31 00:15:34;;;;;;;25.40;16.10;;;4.80;99.90;;;;;;6938871;28;20414;-69
2020/12/31 00:18:55;;;;;;;27.40;16.98;;;4.90;99.90;;;;;;6927275;28;20417;-70
2020/12/31 00:22:15;;;;;;;25.17;15.98;;;4.80;99.90;;;;;;6967134;28;20758;-70
2020/12/31 00:25:45;;;;;;;26.07;16.30;;;4.90;99.90;;;;;;6929440;28;20424;-69
2020/12/31 00:29:06;;;;;;;24.37;15.13;;;5.00;99.90;;;;;;6967440;28;20440;-70
2020/12/31 00:32:27;;;;;;;25.00;15.40;;;4.90;99.90;;;;;;6942158;28;20524;-69
2020/12/31 00:35:56;;;;;;;23.67;15.30;;;4.80;99.90;;;;;;6977118;28;20407;-70
2020/12/31 00:39:16;;;;;;;26.60;16.33;;;4.90;99.90;;;;;;6948447;28;20424;-70
2020/12/31 00:42:37;;;;;;;24.37;15.90;;;5.00;99.90;;;;;;6976359;28;20494;-69
2020/12/31 00:45:58;;;;;;;23.50;15.30;;;4.90;99.90;;;;;;6975432;28;20475;-69
2020/12/31 00:49:19;;;;;;;23.75;15.60;;;4.90;99.90;;;;;;6942451;28;20411;-70
2020/12/31 00:52:40;;;;;;;24.10;15.00;;;5.00;99.90;;;;;;6956504;28;20460;-70
2020/12/31 00:56:01;;;;;;;22.10;15.30;;;5.00;99.90;;;;;;6938036;28;20412;-70
2020/12/31 00:59:22;;;;;;;22.87;15.20;;;5.00;99.90;;;;;;6953017;28;20398;-70
2020/12/31 01:02:43;;;;;;;23.00;15.50;;;5.10;99.90;;;;;;6953449;28;20494;-70
2020/12/31 01:06:04;;;;;;;23.23;15.32;;;5.00;99.90;;;;;;6955468;28;20407;-70
2020/12/31 01:09:25;;;;;;;21.98;14.85;;;5.00;99.90;;;;;;6943646;28;20402;-70
2020/12/31 01:12:46;;;;;;;23.60;15.40;;;4.90;99.90;;;;;;6951219;28;20482;-69
2020/12/31 01:16:09;;;;;;;24.15;15.18;;;5.00;99.90;;;;;;6942484;28;20594;-70
2020/12/31 01:19:30;;;;;;;22.73;14.50;;;5.00;99.90;;;;;;6971786;28;20402;-69
2020/12/31 01:22:53;;;;;;;22.63;14.68;;;5.00;99.90;;;;;;6942893;28;20428;-69
2020/12/31 01:26:13;;;;;;;20.55;13.50;;;5.00;99.90;;;;;;6938926;28;20498;-70
2020/12/31 01:29:34;;;;;;;20.35;13.65;;;5.00;99.90;;;;;;6941316;28;20420;-69
2020/12/31 01:32:56;;;;;;;20.95;13.60;;;4.90;99.90;;;;;;6939163;28;20434;-70
2020/12/31 01:36:17;;;;;;;19.80;14.20;;;4.90;99.90;;;;;;6967191;28;20447;-69
2020/12/31 01:39:38;;;;;;;18.65;12.90;;;5.10;99.90;;;;;;6933302;28;20758;-69
2020/12/31 01:42:59;;;;;;;20.83;12.73;;;5.10;99.90;;;;;;6943425;28;20504;-69
2020/12/31 01:46:20;;;;;;;20.47;13.10;;;5.10;99.90;;;;;;6940087;28;20409;-69
2020/12/31 01:49:42;;;;;;;20.40;13.23;;;5.10;99.90;;;;;;6952248;28;20399;-70
2020/12/31 01:53:03;;;;;;;19.35;12.60;;;5.00;99.90;;;;;;6947394;28;20441;-69
2020/12/31 01:56:31;;;;;;;17.50;11.87;;;4.90;99.90;;;;;;6965888;28;20471;-68
2020/12/31 01:59:52;;;;;;;16.23;11.57;;;4.90;99.90;;;;;;6962819;28;20404;-70
2020/12/31 02:03:13;;;;;;;17.95;12.15;;;5.00;99.90;;;;;;6956401;28;20417;-70
2020/12/31 02:06:35;;;;;;;17.77;12.10;;;5.10;99.90;;;;;;6962506;28;20803;-70
2020/12/31 02:09:55;;;;;;;17.27;12.00;;;5.00;99.90;;;;;;6943662;28;20399;-69
2020/12/31 02:13:16;;;;;;;18.37;11.90;;;5.00;99.90;;;;;;6943985;28;20398;-69
2020/12/31 02:16:39;;;;;;;16.23;11.97;;;5.00;99.90;;;;;;6957458;28;20479;-69
2020/12/31 02:20:00;;;;;;;15.50;11.60;;;5.00;99.90;;;;;;6947749;28;20407;-69
2020/12/31 02:23:21;;;;;;;16.77;12.00;;;4.80;99.90;;;;;;6935084;28;20803;-69
2020/12/31 02:26:46;;;;;;;18.48;12.50;;;4.70;99.90;;;;;;6935509;28;20911;-69
2020/12/31 02:30:07;;;;;;;17.10;12.15;;;4.60;99.90;;;;;;6966776;28;20531;-69
2020/12/31 02:33:28;;;;;;;17.70;12.20;;;4.60;99.90;;;;;;6932478;28;20416;-69
2020/12/31 02:36:48;;;;;;;16.77;11.87;;;4.70;99.90;;;;;;6962442;28;20409;-69
2020/12/31 02:40:09;;;;;;;19.52;12.70;;;4.60;99.90;;;;;;6927995;28;20416;-69
2020/12/31 02:43:30;;;;;;;19.67;13.63;;;4.60;99.90;;;;;;6951357;28;20403;-69
2020/12/31 02:46:51;;;;;;;19.70;13.32;;;4.70;99.90;;;;;;6953171;28;20781;-69
2020/12/31 02:50:12;;;;;;;23.98;14.20;;;4.70;99.90;;;;;;6931071;28;20417;-70
2020/12/31 02:53:34;;;;;;;22.55;14.77;;;4.70;99.90;;;;;;6959987;28;20893;-70
2020/12/31 02:56:54;;;;;;;21.17;14.15;;;4.60;99.90;;;;;;6941495;28;20439;-70
2020/12/31 03:00:15;;;;;;;22.88;14.80;;;4.60;99.90;;;;;;6938544;28;20416;-70
2020/12/31 03:03:37;;;;;;;23.20;14.80;;;4.50;99.90;;;;;;6954740;28;20798;-69
2020/12/31 03:06:58;;;;;;;22.20;15.05;;;4.40;99.90;;;;;;6936438;28;20413;-69
2020/12/31 03:10:18;;;;;;;25.63;15.88;;;4.40;99.90;;;;;;6954526;28;20507;-70
2020/12/31 03:13:39;;;;;;;25.02;16.48;;;4.40;99.90;;;;;;6941363;28;20409;-70
2020/12/31 03:17:00;;;;;;;24.88;15.88;;;4.40;99.90;;;;;;6948486;28;20420;-70
2020/12/31 03:20:21;;;;;;;23.60;15.75;;;4.40;99.90;;;;;;6950503;28;20879;-69
2020/12/31 03:23:42;;;;;;;25.00;16.03;;;4.30;99.90;;;;;;6940161;28;20448;-69
2020/12/31 03:27:03;;;;;;;25.80;16.30;;;4.40;99.90;;;;;;6949275;28;20404;-69
2020/12/31 03:30:24;;;;;;;26.92;17.08;;;4.30;99.90;;;;;;6936953;28;20432;-69
2020/12/31 03:33:46;;;;;;;26.08;16.67;;;4.20;99.90;;;;;;6960129;28;20411;-68
2020/12/31 03:37:07;;;;;;;27.70;16.60;;;4.30;99.90;;;;;;6967353;28;20388;-68
2020/12/31 03:40:28;;;;;;;29.55;17.48;;;4.30;99.90;;;;;;6963282;28;20417;-69
2020/12/31 03:43:49;;;;;;;27.08;17.10;;;4.20;99.90;;;;;;6943609;28;20427;-69
2020/12/31 03:47:10;;;;;;;26.70;16.40;;;4.20;99.90;;;;;;6947250;28;20403;-68
2020/12/31 03:50:31;;;;;;;27.45;16.95;;;4.10;99.90;;;;;;6940593;28;20401;-68
2020/12/31 03:53:52;;;;;;;26.65;16.65;;;4.10;99.90;;;;;;6942379;28;20395;-68
2020/12/31 03:57:13;;;;;;;26.35;16.92;;;4.10;99.90;;;;;;6939576;28;20431;-68
2020/12/31 04:00:34;;;;;;;27.83;17.30;;;4.10;99.90;;;;;;6942586;28;20436;-69
2020/12/31 04:03:55;;;;;;;26.08;16.77;;;4.10;99.90;;;;;;6967464;28;20435;-69
2020/12/31 04:07:16;;;;;;;23.27;15.90;;;4.10;99.90;;;;;;6984209;28;20411;-68
2020/12/31 04:10:36;;;;;;;27.38;17.20;;;4.10;99.90;;;;;;6956113;28;20409;-69
2020/12/31 04:13:57;;;;;;;28.67;17.40;;;4.20;99.90;;;;;;6935441;28;20426;-70
2020/12/31 04:17:18;;;;;;;28.02;17.27;;;4.30;99.90;;;;;;6960856;28;20472;-69
2020/12/31 04:20:39;;;;;;;29.02;17.88;;;4.40;99.90;;;;;;6973504;28;20418;-69
2020/12/31 04:24:00;;;;;;;25.10;16.80;;;4.40;99.90;;;;;;6957648;28;20387;-69
2020/12/31 04:27:21;;;;;;;29.43;17.00;;;4.20;99.90;;;;;;6940182;28;20530;-69
2020/12/31 04:30:45;;;;;;;29.00;17.02;;;4.20;99.90;;;;;;6965703;28;20403;-68
2020/12/31 04:34:06;;;;;;;28.98;17.33;;;4.20;99.90;;;;;;6969287;28;20440;-68
2020/12/31 04:37:27;;;;;;;26.40;17.13;;;4.30;99.90;;;;;;6946519;28;20733;-68
2020/12/31 04:40:47;;;;;;;29.70;18.40;;;4.30;99.90;;;;;;6953515;28;20463;-70
2020/12/31 04:44:13;;;;;;;29.42;17.65;;;4.20;99.90;;;;;;6950207;28;20493;-70
2020/12/31 04:47:47;;;;;;;29.35;18.58;;;4.20;99.90;;;;;;6934170;28;20410;-70
2020/12/31 04:51:12;;;;;;;29.92;19.30;;;4.30;99.90;;;;;;6951960;28;20396;-70
2020/12/31 04:54:39;;;;;;;30.73;18.30;;;4.30;99.90;;;;;;6960368;28;20450;-69
2020/12/31 04:58:00;;;;;;;30.25;18.92;;;4.30;99.90;;;;;;6933137;28;20404;-70
2020/12/31 05:01:21;;;;;;;31.83;19.38;;;4.30;99.90;;;;;;6959856;28;20410;-69
2020/12/31 05:04:42;;;;;;;31.77;18.57;;;4.10;99.90;;;;;;6936960;28;20424;-70
2020/12/31 05:08:04;;;;;;;29.13;18.48;;;4.10;99.90;;;;;;6953667;28;20407;-70
2020/12/31 05:11:42;;;;;;;31.25;19.80;;;4.00;99.90;;;;;;6953737;28;20407;-70
2020/12/31 05:15:03;;;;;;;31.87;19.13;;;4.00;99.90;;;;;;6935326;28;20402;-69
2020/12/31 05:18:29;;;;;;;33.70;20.10;;;4.10;99.90;;;;;;6951065;28;20472;-69
2020/12/31 05:22:11;;;;;;;31.67;19.77;;;4.10;99.90;;;;;;6960103;28;20404;-69
2020/12/31 05:25:35;;;;;;;30.98;19.73;;;4.00;99.90;;;;;;6949259;28;20391;-69
2020/12/31 05:28:59;;;;;;;30.73;18.80;;;4.00;99.90;;;;;;6955030;28;20417;-70
2020/12/31 05:32:21;;;;;;;30.90;18.90;;;4.00;99.90;;;;;;6927465;28;20402;-70
2020/12/31 05:35:42;;;;;;;33.20;19.60;;;3.90;99.90;;;;;;6959358;28;20976;-71
2020/12/31 05:39:05;;;;;;;32.80;20.20;;;3.80;99.90;;;;;;6977636;28;20698;-69
2020/12/31 05:42:28;;;;;;;36.30;20.13;;;3.80;99.90;;;;;;6947197;28;20406;-70
2020/12/31 05:46:09;;;;;;;33.08;20.13;;;3.80;99.90;;;;;;6939756;28;20416;-70
2020/12/31 05:49:31;;;;;;;33.85;20.30;;;3.60;99.90;;;;;;6958774;28;20462;-69
2020/12/31 05:52:53;;;;;;;33.45;20.20;;;3.60;99.90;;;;;;6935744;28;20404;-70
2020/12/31 05:56:18;;;;;;;34.45;19.60;;;3.40;99.90;;;;;;6942122;28;20486;-69
2020/12/31 05:59:44;;;;;;;36.50;20.80;;;3.30;99.90;;;;;;6960540;28;20393;-69
2020/12/31 06:03:16;;;;;;;33.50;19.50;;;3.30;99.90;;;;;;6938012;28;20416;-69
2020/12/31 06:06:50;;;;;;;33.08;20.40;;;3.20;99.90;;;;;;6936366;28;20463;-70
2020/12/31 06:10:14;;;;;;;35.28;20.73;;;3.10;99.90;;;;;;6969490;28;20397;-70
2020/12/31 06:13:38;;;;;;;32.20;19.75;;;3.10;99.90;;;;;;6928245;28;20495;-69
2020/12/31 06:17:01;;;;;;;34.03;19.17;;;2.90;99.90;;;;;;6952399;28;20795;-69
2020/12/31 06:20:27;;;;;;;36.17;19.98;;;3.00;99.90;;;;;;6947891;28;20465;-66
2020/12/31 06:23:48;;;;;;;34.88;19.25;;;2.80;99.90;;;;;;6948447;28;20415;-67
2020/12/31 06:27:12;;;;;;;32.83;19.70;;;2.80;99.90;;;;;;6958913;28;20409;-68
2020/12/31 06:30:35;;;;;;;33.65;19.38;;;2.70;99.90;;;;;;6960813;28;20400;-68
2020/12/31 06:33:56;;;;;;;32.73;18.80;;;2.80;99.90;;;;;;6932296;28;20411;-68
2020/12/31 06:37:17;;;;;;;28.52;17.58;;;2.70;99.90;;;;;;6933187;28;20572;-67
2020/12/31 06:40:38;;;;;;;32.40;19.10;;;2.70;99.90;;;;;;6936409;28;20415;-68
2020/12/31 06:44:28;;;;;;;32.20;18.23;;;2.80;99.90;;;;;;6932170;28;20428;-68
2020/12/31 06:47:49;;;;;;;31.70;18.40;;;2.70;99.90;;;;;;6946833;28;20414;-67
2020/12/31 06:51:13;;;;;;;30.97;18.00;;;2.70;99.90;;;;;;6953492;28;20764;-69
2020/12/31 06:54:33;;;;;;;30.20;18.00;;;2.80;99.90;;;;;;6966274;28;20538;-69
2020/12/31 06:57:54;;;;;;;30.80;18.02;;;2.80;99.90;;;;;;6942373;28;20463;-70
2020/12/31 07:01:29;;;;;;;31.50;17.80;;;2.80;99.90;;;;;;6936626;28;20438;-69
2020/12/31 07:04:53;;;;;;;31.10;17.80;;;2.70;99.90;;;;;;6934260;28;20760;-70
2020/12/31 07:08:56;;;;;;;29.80;18.80;;;2.70;99.90;;;;;;6952551;28;20559;-69
2020/12/31 07:12:50;;;;;;;30.30;17.60;;;2.70;99.90;;;;;;6948498;28;20405;-70
2020/12/31 07:16:45;;;;;;;30.58;17.88;;;2.70;99.90;;;;;;6949617;28;20412;-69
2020/12/31 07:20:50;;;;;;;27.63;16.42;;;2.70;99.90;;;;;;6980060;28;20428;-69
2020/12/31 07:24:37;;;;;;;32.33;18.33;;;2.80;99.90;;;;;;6950510;28;20918;-68
2020/12/31 07:28:02;;;;;;;29.87;17.00;;;2.90;99.90;;;;;;6966597;28;20444;-69
2020/12/31 07:31:42;;;;;;;27.77;16.50;;;2.90;99.90;;;;;;6928822;28;20416;-69
2020/12/31 07:35:31;;;;;;;28.85;16.65;;;2.90;99.90;;;;;;6946128;28;20431;-69
2020/12/31 07:38:54;;;;;;;28.90;17.02;;;3.00;99.90;;;;;;6929573;28;20890;-69
2020/12/31 07:42:17;;;;;;;28.65;17.15;;;3.00;99.90;;;;;;6928036;28;20489;-69
2020/12/31 07:45:38;;;;;;;27.23;15.90;;;3.00;99.90;;;;;;6942201;28;20921;-69
2020/12/31 07:48:59;;;;;;;27.87;16.27;;;3.10;99.90;;;;;;6953956;28;20411;-69
2020/12/31 07:52:20;;;;;;;26.20;16.20;;;3.10;99.90;;;;;;6947389;28;20420;-70
2020/12/31 07:55:51;;;;;;;27.27;16.17;;;3.10;99.90;;;;;;6939076;28;20448;-70
2020/12/31 07:59:12;;;;;;;26.05;15.90;;;3.20;99.90;;;;;;6940428;28;20412;-70
2020/12/31 08:02:33;;;;;;;25.17;14.82;;;3.30;99.90;;;;;;6946279;28;20413;-70
2020/12/31 08:05:59;;;;;;;25.25;15.15;;;3.30;99.90;;;;;;6960753;28;20473;-70
2020/12/31 08:09:22;;;;;;;24.17;14.65;;;3.30;99.90;;;;;;6986698;28;20509;-70
2020/12/31 08:12:56;;;;;;;24.65;14.50;;;3.30;99.90;;;;;;6944264;28;20908;-69
2020/12/31 08:16:17;;;;;;;24.15;14.13;;;3.30;99.90;;;;;;6933550;28;20405;-69
2020/12/31 08:19:39;;;;;;;23.33;14.35;;;3.40;99.90;;;;;;6947757;28;20742;-69
2020/12/31 08:23:03;;;;;;;20.70;13.60;;;3.50;99.90;;;;;;6950077;28;20422;-70
2020/12/31 08:26:24;;;;;;;21.40;13.87;;;3.40;99.90;;;;;;6929543;28;20909;-69
2020/12/31 08:29:46;;;;;;;23.33;13.95;;;3.60;99.90;;;;;;6925845;28;20805;-69
2020/12/31 08:33:10;;;;;;;21.33;13.52;;;3.50;99.90;;;;;;6953957;28;20415;-69
2020/12/31 08:36:31;;;;;;;22.03;13.40;;;3.50;99.90;;;;;;6946638;28;20968;-69
2020/12/31 08:39:54;;;;;;;23.00;13.20;;;3.50;99.90;;;;;;6953321;28;20497;-69
2020/12/31 08:43:21;;;;;;;20.92;13.75;;;3.50;99.90;;;;;;6963097;28;20811;-69
2020/12/31 08:46:47;;;;;;;19.65;12.65;;;3.60;99.90;;;;;;6955402;28;20563;-69
2020/12/31 08:50:09;;;;;;;19.45;12.68;;;3.50;99.90;;;;;;6944332;28;20417;-69
2020/12/31 08:53:31;;;;;;;19.00;12.40;;;3.60;99.90;;;;;;6946923;28;20409;-69
2020/12/31 08:56:52;;;;;;;18.40;12.27;;;3.60;99.90;;;;;;6948969;28;20999;-68
2020/12/31 09:00:13;;;;;;;19.73;11.80;;;3.60;99.90;;;;;;6954235;28;20433;-69
2020/12/31 09:03:33;;;;;;;18.73;11.50;;;3.60;99.90;;;;;;6954820;28;20502;-68
2020/12/31 09:06:57;;;;;;;16.17;11.35;;;3.60;99.90;;;;;;6971450;28;20946;-69
2020/12/31 09:10:18;;;;;;;17.70;11.20;;;3.70;99.90;;;;;;6934959;28;20425;-69
2020/12/31 09:13:39;;;;;;;17.00;10.70;;;3.80;99.90;;;;;;6927498;28;20431;-69
2020/12/31 09:17:18;;;;;;;14.98;10.43;;;3.70;99.90;;;;;;6935047;28;20814;-69
2020/12/31 09:20:39;;;;;;;15.27;10.55;;;3.70;99.90;;;;;;6957708;28;20446;-69
2020/12/31 09:24:15;;;;;;;16.60;10.63;;;3.70;99.90;;;;;;6968922;28;20452;-69
2020/12/31 09:27:36;;;;;;;15.10;10.75;;;3.70;99.90;;;;;;6946729;28;20413;-70
2020/12/31 09:31:13;;;;;;;14.75;10.30;;;3.80;99.90;;;;;;6941881;28;20893;-70
2020/12/31 09:34:33;;;;;;;15.35;9.40;;;3.80;99.90;;;;;;6930851;28;20410;-68
2020/12/31 09:37:59;;;;;;;13.40;9.50;;;3.80;99.90;;;;;;6959511;28;20459;-70
2020/12/31 09:41:20;;;;;;;15.45;9.95;;;3.80;99.90;;;;;;6950601;28;20401;-69
2020/12/31 09:44:40;;;;;;;14.60;9.68;;;3.90;99.90;;;;;;6961707;28;20412;-70
2020/12/31 09:48:03;;;;;;;13.40;9.37;;;4.00;99.90;;;;;;6954233;28;20807;-70
2020/12/31 09:51:23;;;;;;;13.50;9.30;;;4.00;99.90;;;;;;6953127;28;20762;-69
2020/12/31 09:54:44;;;;;;;13.57;8.83;;;4.00;99.90;;;;;;6946469;28;20420;-69
2020/12/31 09:58:05;;;;;;;13.10;9.30;;;4.20;99.90;;;;;;6945772;28;20403;-69
2020/12/31 10:01:26;;;;;;;12.85;9.02;;;4.10;99.90;;;;;;6923364;28;20771;-69
2020/12/31 10:04:47;;;;;;;12.10;8.40;;;4.00;99.90;;;;;;6973938;28;20407;-68
2020/12/31 10:08:08;;;;;;;13.07;8.50;;;4.00;99.90;;;;;;6945476;28;20412;-69
2020/12/31 10:11:29;;;;;;;12.30;8.60;;;4.10;99.90;;;;;;6954276;28;20396;-69
2020/12/31 10:14:50;;;;;;;13.03;8.83;;;4.20;99.90;;;;;;6937159;28;20396;-69
2020/12/31 10:18:12;;;;;;;12.70;8.60;;;4.10;99.90;;;;;;6954858;28;20405;-68
2020/12/31 10:21:33;;;;;;;12.80;8.20;;;4.20;99.90;;;;;;6949033;28;20424;-68
2020/12/31 10:24:54;;;;;;;13.20;8.70;;;4.10;99.90;;;;;;6955585;28;20407;-68
2020/12/31 10:28:15;;;;;;;12.10;8.13;;;4.10;99.90;;;;;;6933786;28;21044;-68
2020/12/31 10:31:41;;;;;;;13.35;8.82;;;4.20;99.90;;;;;;6940239;28;20709;-68
2020/12/31 10:35:02;;;;;;;12.00;8.40;;;4.20;99.90;;;;;;6930170;28;20401;-68
2020/12/31 10:38:22;;;;;;;12.40;8.40;;;4.20;99.90;;;;;;6910821;28;20455;-69
2020/12/31 10:41:45;;;;;;;11.23;8.00;;;4.30;99.90;;;;;;6923863;28;20431;-69
2020/12/31 10:45:06;;;;;;;12.18;8.18;;;4.30;99.90;;;;;;6915629;28;20892;-70
2020/12/31 10:48:26;;;;;;;10.55;8.07;;;4.30;99.90;;;;;;6916835;28;20468;-68
2020/12/31 10:51:47;;;;;;;13.63;9.00;;;4.20;99.90;;;;;;6928301;28;20411;-68
2020/12/31 10:55:08;;;;;;;11.00;7.90;;;4.20;99.90;;;;;;6915222;28;20401;-67
2020/12/31 10:58:29;;;;;;;11.85;8.45;;;4.30;99.90;;;;;;6928674;28;20453;-69
2020/12/31 11:01:53;;;;;;;10.88;7.75;;;4.40;99.90;;;;;;6924615;28;20740;-68
2020/12/31 11:05:14;;;;;;;11.57;8.03;;;4.20;99.90;;;;;;6943323;28;20437;-68
2020/12/31 11:08:35;;;;;;;11.50;8.30;;;4.30;99.90;;;;;;6918282;28;20436;-67
2020/12/31 11:11:56;;;;;;;10.90;7.90;;;4.30;99.90;;;;;;6929181;28;20510;-69
2020/12/31 11:15:17;;;;;;;12.60;8.70;;;4.50;99.90;;;;;;6956392;28;20517;-69
2020/12/31 11:18:39;;;;;;;12.55;8.55;;;4.50;99.90;;;;;;6910473;28;20406;-68
2020/12/31 11:22:00;;;;;;;12.35;8.77;;;4.50;99.90;;;;;;6946453;28;20450;-68
2020/12/31 11:25:21;;;;;;;10.82;8.30;;;4.40;99.90;;;;;;6953466;28;20417;-68
2020/12/31 11:28:42;;;;;;;12.00;8.80;;;4.50;99.90;;;;;;6962180;28;20578;-68
2020/12/31 11:32:03;;;;;;;12.37;8.53;;;4.40;99.90;;;;;;6953456;28;20474;-68
2020/12/31 11:35:24;;;;;;;12.40;8.80;;;4.30;99.90;;;;;;6949739;28;20409;-68
2020/12/31 11:38:45;;;;;;;12.93;8.55;;;4.40;99.90;;;;;;6940711;28;20410;-69
2020/12/31 11:42:06;;;;;;;13.50;8.73;;;4.60;99.90;;;;;;6981898;28;20820;-69
2020/12/31 11:45:27;;;;;;;13.02;8.77;;;4.60;99.90;;;;;;6935578;28;20412;-69
2020/12/31 11:48:47;;;;;;;12.00;8.00;;;4.40;99.90;;;;;;6977115;28;20506;-69
2020/12/31 11:52:08;;;;;;;10.97;8.10;;;4.60;99.90;;;;;;6957633;28;20752;-69
2020/12/31 11:55:29;;;;;;;12.00;8.35;;;4.70;99.90;;;;;;6954378;28;20417;-70
2020/12/31 11:58:50;;;;;;;12.88;8.60;;;4.70;99.90;;;;;;6959625;28;20444;-70
2020/12/31 12:02:11;;;;;;;12.73;8.80;;;4.50;99.90;;;;;;6947155;28;20405;-70
2020/12/31 12:05:32;;;;;;;12.43;8.43;;;4.50;99.90;;;;;;6966707;28;20410;-70
2020/12/31 12:08:52;;;;;;;12.70;9.20;;;4.50;99.90;;;;;;6959600;28;20441;-70
2020/12/31 12:12:13;;;;;;;12.70;8.82;;;4.60;99.90;;;;;;6957592;28;20872;-70
2020/12/31 12:15:34;;;;;;;12.25;8.70;;;4.40;99.90;;;;;;6963311;28;20400;-69
2020/12/31 12:18:55;;;;;;;12.38;8.80;;;4.40;99.90;;;;;;6976413;28;20398;-69
2020/12/31 12:22:15;;;;;;;11.80;8.60;;;4.40;99.90;;;;;;6952990;28;20455;-69
2020/12/31 12:25:36;;;;;;;14.20;9.10;;;4.40;99.90;;;;;;6944745;28;20436;-69
2020/12/31 12:28:57;;;;;;;13.77;9.32;;;4.40;99.90;;;;;;6935495;28;20415;-70
2020/12/31 12:32:18;;;;;;;12.95;9.23;;;4.40;99.90;;;;;;6962742;28;20406;-69
2020/12/31 12:35:39;;;;;;;12.10;8.70;;;4.40;99.90;;;;;;6951213;28;20411;-69
2020/12/31 12:39:00;;;;;;;13.55;9.30;;;4.40;99.90;;;;;;6933856;28;20483;-69
2020/12/31 12:42:21;;;;;;;12.57;8.80;;;4.40;99.90;;;;;;6936061;28;21055;-69
2020/12/31 12:45:41;;;;;;;11.80;8.70;;;4.40;99.90;;;;;;6923867;28;20421;-71
2020/12/31 12:49:03;;;;;;;13.73;8.98;;;4.40;99.90;;;;;;6936754;28;20421;-70
2020/12/31 12:52:24;;;;;;;14.13;9.00;;;4.40;99.90;;;;;;6941193;28;20835;-68
2020/12/31 12:55:45;;;;;;;11.10;8.45;;;4.40;99.90;;;;;;6963880;28;20415;-72
2020/12/31 12:59:06;;;;;;;12.50;8.93;;;4.30;99.90;;;;;;6942106;28;20401;-70
2020/12/31 13:02:27;;;;;;;12.98;9.20;;;4.30;99.90;;;;;;6952379;28;20405;-69
2020/12/31 13:05:48;;;;;;;14.05;9.68;;;4.20;99.90;;;;;;6954033;28;20825;-70
2020/12/31 13:09:10;;;;;;;14.45;9.95;;;4.30;99.90;;;;;;6979560;28;20409;-70
2020/12/31 13:12:31;;;;;;;13.60;9.20;;;4.20;99.90;;;;;;6953193;28;21207;-70
2020/12/31 13:15:52;;;;;;;13.38;9.30;;;4.20;99.90;;;;;;6948724;28;20399;-70
2020/12/31 13:19:13;;;;;;;13.00;9.18;;;4.20;99.90;;;;;;6948607;28;20463;-71
2020/12/31 13:22:33;;;;;;;15.50;9.95;;;4.10;99.90;;;;;;6942438;28;20512;-70
2020/12/31 13:25:55;;;;;;;12.33;9.07;;;4.10;99.90;;;;;;6927170;28;20430;-70
2020/12/31 13:29:16;;;;;;;13.77;10.02;;;4.00;99.90;;;;;;6949765;28;20415;-70
2020/12/31 13:32:37;;;;;;;13.13;9.85;;;4.10;99.90;;;;;;6966883;28;20699;-70
2020/12/31 13:35:58;;;;;;;12.63;9.40;;;4.10;99.90;;;;;;6960534;28;20414;-71
2020/12/31 13:39:19;;;;;;;13.48;9.80;;;4.20;99.90;;;;;;6950866;28;20456;-70
2020/12/31 13:42:40;;;;;;;14.55;10.45;;;4.20;99.90;;;;;;6967381;28;20399;-72
2020/12/31 13:46:01;;;;;;;13.88;10.10;;;4.20;99.90;;;;;;6969128;28;20453;-71
2020/12/31 13:49:22;;;;;;;15.50;9.90;;;4.20;99.90;;;;;;6932639;28;20415;-71
2020/12/31 13:52:43;;;;;;;13.00;10.07;;;4.30;99.90;;;;;;6963692;28;20969;-70
2020/12/31 13:56:04;;;;;;;13.65;10.00;;;4.40;99.90;;;;;;6950088;28;20787;-72
2020/12/31 13:59:25;;;;;;;15.50;10.73;;;4.30;99.90;;;;;;6947231;28;20499;-70
2020/12/31 14:02:46;;;;;;;14.90;10.50;;;4.30;99.90;;;;;;6934956;28;20396;-69
2020/12/31 14:06:07;;;;;;;14.07;10.13;;;4.30;99.90;;;;;;6963234;28;20941;-69
2020/12/31 14:09:28;;;;;;;15.40;10.13;;;4.20;99.90;;;;;;6937211;28;20509;-69
2020/12/31 14:12:49;;;;;;;13.93;10.10;;;4.20;99.90;;;;;;6940862;28;20402;-70
2020/12/31 14:16:09;;;;;;;15.30;10.60;;;4.20;99.90;;;;;;6937439;28;20465;-70
2020/12/31 14:19:30;;;;;;;13.88;10.00;;;4.20;99.90;;;;;;6934200;28;20466;-70
2020/12/31 14:22:51;;;;;;;13.60;10.05;;;4.10;99.90;;;;;;6947185;28;20405;-70
2020/12/31 14:26:21;;;;;;;13.90;9.90;;;4.10;99.90;;;;;;6946331;28;20408;-70
2020/12/31 14:29:42;;;;;;;14.60;9.95;;;4.10;99.90;;;;;;6930075;28;20403;-69
2020/12/31 14:33:03;;;;;;;14.90;10.55;;;4.10;99.90;;;;;;6934696;28;20417;-69
2020/12/31 14:36:24;;;;;;;13.60;9.73;;;4.10;99.90;;;;;;6940077;28;20879;-71
2020/12/31 14:39:45;;;;;;;14.55;10.50;;;4.10;99.90;;;;;;6950801;28;20447;-70
2020/12/31 14:43:07;;;;;;;15.63;10.80;;;4.10;99.90;;;;;;6971868;28;20408;-70
2020/12/31 14:46:30;;;;;;;14.73;10.63;;;4.10;99.90;;;;;;6935507;28;20876;-71
2020/12/31 14:49:51;;;;;;;13.75;10.02;;;4.10;99.90;;;;;;6954414;28;20401;-70
2020/12/31 14:53:12;;;;;;;14.90;11.00;;;4.20;99.90;;;;;;6948340;28;20409;-71
2020/12/31 14:56:33;;;;;;;15.07;10.80;;;4.00;99.90;;;;;;6962499;28;20397;-71
2020/12/31 14:59:54;;;;;;;16.15;10.75;;;4.10;99.90;;;;;;6932741;28;20758;-71
2020/12/31 15:03:15;;;;;;;17.33;11.50;;;4.10;99.90;;;;;;6958730;28;20491;-72
2020/12/31 15:06:37;;;;;;;16.60;11.47;;;4.10;99.90;;;;;;6949163;28;20846;-71
2020/12/31 15:09:58;;;;;;;16.40;11.60;;;4.10;99.90;;;;;;6950415;28;20422;-70
2020/12/31 15:13:20;;;;;;;16.88;11.68;;;4.10;99.90;;;;;;6957414;28;20646;-70
2020/12/31 15:16:41;;;;;;;16.38;11.82;;;4.10;99.90;;;;;;6941368;28;20402;-70
2020/12/31 15:20:02;;;;;;;18.33;12.43;;;4.10;99.90;;;;;;6948742;28;20478;-69
2020/12/31 15:23:22;;;;;;;18.73;12.52;;;4.10;99.90;;;;;;6928096;28;20885;-70
2020/12/31 15:26:43;;;;;;;17.20;12.30;;;4.10;99.90;;;;;;6941981;28;20407;-70
2020/12/31 15:30:06;;;;;;;17.73;12.20;;;4.00;99.90;;;;;;6943768;28;20468;-70
2020/12/31 15:33:27;;;;;;;16.58;11.68;;;4.10;99.90;;;;;;6925953;28;20405;-71
2020/12/31 15:36:48;;;;;;;18.47;11.97;;;4.10;99.90;;;;;;6913180;28;20933;-70
2020/12/31 15:40:10;;;;;;;16.77;11.40;;;4.00;99.90;;;;;;6909937;28;20416;-71
2020/12/31 15:43:31;;;;;;;17.35;11.70;;;4.10;99.90;;;;;;6911180;28;20413;-70
2020/12/31 15:46:53;;;;;;;15.70;11.60;;;4.00;99.90;;;;;;6925698;28;20422;-69
2020/12/31 15:50:14;;;;;;;17.17;12.15;;;4.10;99.90;;;;;;6905119;28;20409;-69
2020/12/31 15:53:35;;;;;;;15.50;11.20;;;3.90;99.90;;;;;;6904405;28;20407;-69
2020/12/31 15:56:56;;;;;;;16.67;12.25;;;3.90;99.90;;;;;;6941337;28;20419;-70
2020/12/31 16:00:17;;;;;;;17.23;11.80;;;4.00;99.90;;;;;;6905853;28;20419;-70
2020/12/31 16:03:38;;;;;;;16.13;11.80;;;4.00;99.90;;;;;;6906040;28;20398;-70
2020/12/31 16:06:59;;;;;;;17.70;12.20;;;4.00;99.90;;;;;;6936387;28;20450;-68
2020/12/31 16:10:21;;;;;;;17.98;12.20;;;4.00;99.90;;;;;;6933385;28;20918;-70
2020/12/31 16:13:42;;;;;;;35.30;24.73;;;4.00;99.90;;;;;;6919952;28;20463;-68
2020/12/31 16:17:04;;;;;;;29.30;22.33;;;3.90;99.90;;;;;;6917988;28;20823;-68
2020/12/31 16:20:25;;;;;;;32.08;22.13;;;4.00;99.90;;;;;;6907970;28;20405;-70
2020/12/31 16:23:46;;;;;;;18.42;12.85;;;3.90;99.90;;;;;;6929820;28;20411;-69
2020/12/31 16:27:07;;;;;;;17.33;11.67;;;4.00;99.90;;;;;;6949111;28;20448;-69
2020/12/31 16:30:28;;;;;;;18.50;12.50;;;4.00;99.90;;;;;;6927780;28;20440;-69
2020/12/31 16:33:49;;;;;;;16.70;12.30;;;4.00;99.90;;;;;;6952980;28;20429;-69
2020/12/31 16:37:15;;;;;;;18.83;13.00;;;4.00;99.90;;;;;;6950764;28;20404;-70
2020/12/31 16:40:36;;;;;;;19.80;12.50;;;4.00;99.90;;;;;;6963464;28;20404;-71
2020/12/31 16:43:57;;;;;;;18.80;12.40;;;3.90;99.90;;;;;;6943241;28;20408;-69
2020/12/31 16:47:23;;;;;;;18.73;12.98;;;3.90;99.90;;;;;;6961355;28;20465;-69
2020/12/31 16:50:44;;;;;;;18.00;12.80;;;3.90;99.90;;;;;;6954065;28;20758;-70
2020/12/31 16:54:05;;;;;;;18.30;12.60;;;3.80;99.90;;;;;;6956551;28;20408;-68
2020/12/31 16:57:26;;;;;;;19.27;12.70;;;3.80;99.90;;;;;;6951072;28;20397;-69
2020/12/31 17:00:47;;;;;;;18.30;12.73;;;3.70;99.90;;;;;;6954405;28;20396;-71
2020/12/31 17:04:08;;;;;;;18.97;12.67;;;3.70;99.90;;;;;;6986942;28;20471;-71
2020/12/31 17:07:29;;;;;;;17.90;12.30;;;3.80;99.90;;;;;;6937284;28;20409;-71
2020/12/31 17:10:50;;;;;;;16.75;12.02;;;3.80;99.90;;;;;;6949166;28;20409;-71
2020/12/31 17:14:12;;;;;;;16.88;12.23;;;3.80;99.90;;;;;;6977032;28;20451;-71
2020/12/31 17:17:33;;;;;;;19.55;13.60;;;3.80;99.90;;;;;;6945194;28;20411;-70
2020/12/31 17:20:54;;;;;;;16.98;11.65;;;3.90;99.90;;;;;;6950590;28;20682;-71
2020/12/31 17:24:16;;;;;;;16.15;11.48;;;3.90;99.90;;;;;;6933487;28;20436;-71